Time;durP1;ratioP1;P1;durP2;ratioP2;P2;SDS_P1;SDS_P2;PMS_P1;PMS_P2;Temp;Humidity;BMP_temperature;BMP_pressure;BME280_temperature;BME280_humidity;BME280_pressure;Samples;Min_cycle;Max_cycle;Signal;HPM_P1;HPM_P2
2024/01/17 00:02:04;;;;;;;31.10;14.95;;;;;;;;;;4969720;28;20418;-61
2024/01/17 00:04:30;;;;;;;30.67;14.57;;;;;;;;;;4970375;28;20058;-61
2024/01/17 00:06:57;;;;;;;28.58;13.80;;;;;;;;;;4972391;28;20034;-60
2024/01/17 00:09:23;;;;;;;29.10;14.63;;;;;;;;;;4972273;28;20054;-60
2024/01/17 00:11:50;;;;;;;31.08;15.63;;;;;;;;;;4971225;28;20058;-60
2024/01/17 00:14:16;;;;;;;30.45;15.07;;;;;;;;;;4973387;28;20046;-61
2024/01/17 00:16:43;;;;;;;36.03;15.80;;;;;;;;;;4969694;28;20047;-60
2024/01/17 00:19:10;;;;;;;31.45;15.38;;;;;;;;;;4969976;28;20046;-60
2024/01/17 00:21:36;;;;;;;35.35;16.77;;;;;;;;;;4971735;28;20047;-60
2024/01/17 00:24:02;;;;;;;31.60;16.08;;;;;;;;;;4972028;28;20046;-60
2024/01/17 00:26:28;;;;;;;30.25;15.63;;;;;;;;;;4970593;28;20046;-60
2024/01/17 00:28:55;;;;;;;28.83;14.82;;;;;;;;;;4969694;28;20539;-60
2024/01/17 00:31:23;;;;;;;30.02;15.15;;;;;;;;;;4986724;28;20035;-61
2024/01/17 00:33:49;;;;;;;34.00;14.65;;;;;;;;;;4968430;28;20050;-60
2024/01/17 00:36:16;;;;;;;31.45;15.45;;;;;;;;;;4965273;28;20406;-60
2024/01/17 00:38:42;;;;;;;31.58;14.10;;;;;;;;;;4968383;28;20038;-60
2024/01/17 00:41:08;;;;;;;32.05;14.73;;;;;;;;;;4971275;28;20038;-60
2024/01/17 00:43:34;;;;;;;30.40;13.50;;;;;;;;;;4966988;28;20041;-60
2024/01/17 00:46:01;;;;;;;31.40;13.43;;;;;;;;;;4970511;28;20088;-60
2024/01/17 00:48:27;;;;;;;26.98;13.02;;;;;;;;;;4968293;28;20633;-60
2024/01/17 00:50:53;;;;;;;29.55;14.35;;;;;;;;;;4971008;28;20065;-60
2024/01/17 00:53:20;;;;;;;25.13;13.60;;;;;;;;;;4969220;28;20038;-60
2024/01/17 00:55:46;;;;;;;27.17;14.07;;;;;;;;;;4969390;28;20062;-60
2024/01/17 00:58:12;;;;;;;34.03;16.98;;;;;;;;;;4970191;28;20054;-60
2024/01/17 01:00:39;;;;;;;36.83;16.73;;;;;;;;;;4969106;28;20042;-60
2024/01/17 01:03:05;;;;;;;36.28;16.58;;;;;;;;;;4970055;28;20031;-60
2024/01/17 01:05:31;;;;;;;34.72;16.75;;;;;;;;;;4971665;28;20050;-60
2024/01/17 01:07:57;;;;;;;28.65;14.52;;;;;;;;;;4970121;28;20387;-60
2024/01/17 01:10:23;;;;;;;27.15;14.23;;;;;;;;;;4970814;28;20051;-60
2024/01/17 01:12:49;;;;;;;28.80;15.05;;;;;;;;;;4971414;28;20046;-60
2024/01/17 01:15:15;;;;;;;24.92;13.85;;;;;;;;;;4984394;28;20042;-60
2024/01/17 01:17:42;;;;;;;27.52;13.85;;;;;;;;;;4969693;28;20047;-60
2024/01/17 01:20:08;;;;;;;25.67;13.73;;;;;;;;;;4970046;28;20030;-60
2024/01/17 01:22:34;;;;;;;27.77;13.63;;;;;;;;;;4964494;28;20055;-60
2024/01/17 01:25:00;;;;;;;27.40;14.05;;;;;;;;;;4970357;28;20054;-60
2024/01/17 01:27:26;;;;;;;26.02;13.45;;;;;;;;;;4966243;28;20051;-60
2024/01/17 01:29:54;;;;;;;23.48;12.82;;;;;;;;;;4965318;28;20534;-60
2024/01/17 01:32:20;;;;;;;28.10;13.60;;;;;;;;;;4968187;28;20045;-60
2024/01/17 01:34:46;;;;;;;27.35;13.43;;;;;;;;;;4971176;28;20046;-60
2024/01/17 01:37:12;;;;;;;27.42;14.05;;;;;;;;;;4970974;28;20415;-60
2024/01/17 01:39:38;;;;;;;24.45;13.80;;;;;;;;;;4970367;28;20046;-60
2024/01/17 01:42:04;;;;;;;25.40;14.00;;;;;;;;;;4970175;28;20034;-60
2024/01/17 01:44:30;;;;;;;29.92;14.75;;;;;;;;;;4969075;28;20034;-60
2024/01/17 01:46:57;;;;;;;24.60;13.60;;;;;;;;;;4967130;28;20399;-60
2024/01/17 01:49:24;;;;;;;27.20;13.50;;;;;;;;;;4964763;28;20042;-60
2024/01/17 01:51:50;;;;;;;25.95;13.65;;;;;;;;;;4970441;28;20046;-61
2024/01/17 01:54:19;;;;;;;26.08;13.40;;;;;;;;;;4971338;28;20039;-60
2024/01/17 01:56:47;;;;;;;30.63;13.57;;;;;;;;;;4970165;28;20410;-60
2024/01/17 01:59:16;;;;;;;27.45;14.13;;;;;;;;;;4968857;28;20050;-60
2024/01/17 02:01:43;;;;;;;26.15;13.82;;;;;;;;;;4968029;28;20043;-60
2024/01/17 02:04:10;;;;;;;27.58;14.05;;;;;;;;;;4969606;28;20034;-60
2024/01/17 02:06:38;;;;;;;25.55;12.75;;;;;;;;;;4970580;28;20487;-60
2024/01/17 02:09:04;;;;;;;29.23;12.73;;;;;;;;;;4970937;28;20057;-60
2024/01/17 02:11:31;;;;;;;22.08;11.00;;;;;;;;;;4970966;28;20513;-60
2024/01/17 02:14:00;;;;;;;20.60;10.30;;;;;;;;;;4970095;28;20081;-60
2024/01/17 02:16:26;;;;;;;20.58;10.07;;;;;;;;;;4969645;28;20037;-61
2024/01/17 02:18:53;;;;;;;21.77;9.50;;;;;;;;;;4969253;28;20410;-60
2024/01/17 02:21:19;;;;;;;21.33;11.00;;;;;;;;;;4970201;28;20038;-60
2024/01/17 02:23:51;;;;;;;25.15;13.88;;;;;;;;;;4970593;28;20042;-59
2024/01/17 02:26:17;;;;;;;29.80;14.02;;;;;;;;;;4971249;28;20027;-59
2024/01/17 02:28:44;;;;;;;33.25;15.45;;;;;;;;;;4968254;28;20035;-60
2024/01/17 02:31:11;;;;;;;31.38;16.15;;;;;;;;;;4969933;28;20042;-59
2024/01/17 02:33:37;;;;;;;12.98;6.57;;;;;;;;;;4970508;28;20053;-60
2024/01/17 02:36:04;;;;;;;14.90;7.45;;;;;;;;;;4966178;28;20062;-60
2024/01/17 02:38:30;;;;;;;18.48;8.45;;;;;;;;;;4965740;28;20054;-59
2024/01/17 02:40:56;;;;;;;15.15;7.50;;;;;;;;;;4965478;28;20035;-59
2024/01/17 02:43:23;;;;;;;16.27;7.10;;;;;;;;;;4970773;28;20051;-59
2024/01/17 02:45:49;;;;;;;15.65;6.72;;;;;;;;;;4970307;28;20050;-60
2024/01/17 02:48:15;;;;;;;13.70;7.00;;;;;;;;;;4985413;28;20054;-59
2024/01/17 02:50:41;;;;;;;17.35;8.45;;;;;;;;;;4969406;28;20537;-60
2024/01/17 02:53:07;;;;;;;17.00;7.90;;;;;;;;;;4969821;28;20053;-61
2024/01/17 02:55:33;;;;;;;15.43;6.97;;;;;;;;;;4970859;28;20050;-60
2024/01/17 02:58:02;;;;;;;17.58;8.70;;;;;;;;;;4969300;28;20043;-59
2024/01/17 03:00:28;;;;;;;15.80;6.93;;;;;;;;;;4968004;28;20039;-60
2024/01/17 03:02:54;;;;;;;14.88;6.78;;;;;;;;;;4969947;28;20434;-59
2024/01/17 03:05:20;;;;;;;14.02;7.60;;;;;;;;;;4982727;28;20030;-60
2024/01/17 03:07:46;;;;;;;13.13;6.25;;;;;;;;;;4969294;28;20039;-60
2024/01/17 03:10:13;;;;;;;13.07;6.40;;;;;;;;;;4969574;28;20179;-60
2024/01/17 03:12:40;;;;;;;11.90;6.07;;;;;;;;;;4968957;28;20034;-60
2024/01/17 03:15:07;;;;;;;13.52;6.25;;;;;;;;;;4969293;28;20054;-60
2024/01/17 03:17:36;;;;;;;14.57;6.53;;;;;;;;;;4969462;28;20411;-61
2024/01/17 03:20:03;;;;;;;14.48;7.47;;;;;;;;;;4969268;28;20423;-60
2024/01/17 03:22:30;;;;;;;13.02;6.65;;;;;;;;;;4966712;28;20034;-60
2024/01/17 03:24:56;;;;;;;12.27;6.05;;;;;;;;;;4970443;28;20057;-60
2024/01/17 03:27:22;;;;;;;13.18;5.85;;;;;;;;;;4969725;28;20035;-60
2024/01/17 03:29:48;;;;;;;16.17;5.88;;;;;;;;;;4969576;28;20049;-60
2024/01/17 03:32:14;;;;;;;11.45;5.72;;;;;;;;;;4969293;28;20406;-61
2024/01/17 03:34:40;;;;;;;10.75;4.90;;;;;;;;;;4969059;28;20043;-60
2024/01/17 03:37:06;;;;;;;12.30;5.20;;;;;;;;;;4969459;28;20042;-60
2024/01/17 03:39:33;;;;;;;10.52;5.05;;;;;;;;;;4969993;28;20502;-60
2024/01/17 03:41:59;;;;;;;11.77;6.53;;;;;;;;;;4970340;28;20057;-60
2024/01/17 03:44:25;;;;;;;11.07;5.10;;;;;;;;;;4971482;28;20050;-60
2024/01/17 03:46:52;;;;;;;11.95;5.53;;;;;;;;;;4971406;28;20050;-61
2024/01/17 03:49:18;;;;;;;11.00;5.00;;;;;;;;;;4971591;28;20026;-61
2024/01/17 03:51:44;;;;;;;13.80;5.88;;;;;;;;;;4987389;28;20051;-60
2024/01/17 03:54:10;;;;;;;10.13;4.53;;;;;;;;;;4972166;28;20062;-61
2024/01/17 03:56:36;;;;;;;9.85;4.93;;;;;;;;;;4971756;28;20402;-61
2024/01/17 03:59:04;;;;;;;10.48;5.05;;;;;;;;;;4969263;28;20031;-60
2024/01/17 04:01:30;;;;;;;10.70;5.00;;;;;;;;;;4972260;28;20529;-61
2024/01/17 04:03:56;;;;;;;12.82;5.32;;;;;;;;;;4967058;28;20066;-61
2024/01/17 04:06:22;;;;;;;11.73;5.88;;;;;;;;;;4972813;28;20054;-60
2024/01/17 04:08:49;;;;;;;10.43;5.28;;;;;;;;;;4971876;28;20030;-60
2024/01/17 04:11:15;;;;;;;12.20;5.60;;;;;;;;;;4972863;28;20043;-60
2024/01/17 04:13:44;;;;;;;12.77;6.30;;;;;;;;;;4974585;28;20549;-61
2024/01/17 04:16:11;;;;;;;13.05;6.15;;;;;;;;;;4971500;28;20051;-61
2024/01/17 04:18:37;;;;;;;14.95;7.10;;;;;;;;;;4963699;28;20064;-62
2024/01/17 04:21:03;;;;;;;13.20;6.68;;;;;;;;;;4971761;28;20057;-61
2024/01/17 04:23:29;;;;;;;19.95;7.47;;;;;;;;;;4969496;28;20046;-63
2024/01/17 04:25:56;;;;;;;18.27;8.45;;;;;;;;;;4971844;28;20042;-60
2024/01/17 04:28:22;;;;;;;24.50;9.02;;;;;;;;;;4972414;28;20027;-62
2024/01/17 04:30:49;;;;;;;21.90;9.10;;;;;;;;;;4965817;28;20050;-62
2024/01/17 04:33:16;;;;;;;20.63;9.65;;;;;;;;;;4967959;28;20049;-63
2024/01/17 04:35:42;;;;;;;18.73;8.32;;;;;;;;;;4972007;28;20035;-61
2024/01/17 04:38:08;;;;;;;20.63;8.45;;;;;;;;;;4971505;28;20046;-62
2024/01/17 04:40:36;;;;;;;18.48;8.52;;;;;;;;;;4967569;28;20050;-62
2024/01/17 04:43:03;;;;;;;16.02;7.57;;;;;;;;;;4970777;28;20027;-61
2024/01/17 04:45:30;;;;;;;17.95;7.70;;;;;;;;;;4971630;28;20056;-61
2024/01/17 04:47:56;;;;;;;19.10;7.32;;;;;;;;;;4972384;28;20059;-61
2024/01/17 04:50:23;;;;;;;15.25;7.15;;;;;;;;;;4968754;28;20047;-62
2024/01/17 04:52:50;;;;;;;17.15;7.78;;;;;;;;;;4971901;28;20039;-62
2024/01/17 04:55:16;;;;;;;20.63;8.77;;;;;;;;;;4971242;28;20057;-61
2024/01/17 04:57:42;;;;;;;19.42;8.05;;;;;;;;;;4971517;28;20434;-63
2024/01/17 05:00:08;;;;;;;18.25;7.68;;;;;;;;;;4968147;28;20054;-63
2024/01/17 05:02:35;;;;;;;22.10;7.85;;;;;;;;;;4971099;28;20499;-63
2024/01/17 05:05:01;;;;;;;19.15;7.68;;;;;;;;;;4970260;28;20055;-61
2024/01/17 05:07:27;;;;;;;16.45;7.75;;;;;;;;;;4964115;28;20419;-62
2024/01/17 05:09:53;;;;;;;20.75;8.27;;;;;;;;;;4985343;28;20046;-63
2024/01/17 05:12:20;;;;;;;17.38;7.70;;;;;;;;;;4970181;28;20051;-63
2024/01/17 05:14:46;;;;;;;17.50;7.72;;;;;;;;;;4971531;28;20046;-65
2024/01/17 05:17:12;;;;;;;19.50;7.93;;;;;;;;;;4968251;28;20063;-63
2024/01/17 05:19:39;;;;;;;19.30;8.23;;;;;;;;;;4969252;28;20050;-63
2024/01/17 05:22:05;;;;;;;23.92;9.27;;;;;;;;;;4966066;28;20054;-64
2024/01/17 05:24:31;;;;;;;17.67;7.68;;;;;;;;;;4965851;28;20081;-65
2024/01/17 05:26:57;;;;;;;18.95;8.43;;;;;;;;;;4963525;28;20039;-64
2024/01/17 05:29:23;;;;;;;18.75;8.45;;;;;;;;;;4965785;28;20043;-64
2024/01/17 05:31:49;;;;;;;18.95;8.13;;;;;;;;;;4983204;28;20080;-64
2024/01/17 05:34:16;;;;;;;17.63;8.50;;;;;;;;;;4983937;28;20045;-65
2024/01/17 05:36:43;;;;;;;20.05;8.18;;;;;;;;;;4984258;28;20510;-63
2024/01/17 05:39:09;;;;;;;18.08;7.22;;;;;;;;;;4967386;28;20042;-64
2024/01/17 05:41:36;;;;;;;19.52;8.27;;;;;;;;;;4969319;28;20042;-63
2024/01/17 05:44:02;;;;;;;25.05;10.35;;;;;;;;;;4968690;28;20434;-64
2024/01/17 05:46:28;;;;;;;20.55;8.93;;;;;;;;;;4964116;28;20050;-63
2024/01/17 05:48:54;;;;;;;27.30;10.23;;;;;;;;;;4962711;28;20061;-63
2024/01/17 05:51:20;;;;;;;23.85;9.32;;;;;;;;;;4969819;28;20410;-65
2024/01/17 05:53:46;;;;;;;22.30;9.05;;;;;;;;;;4970126;28;20057;-65
2024/01/17 05:56:13;;;;;;;22.48;9.60;;;;;;;;;;4970807;28;20053;-65
2024/01/17 05:58:39;;;;;;;21.17;8.88;;;;;;;;;;4968207;28;20058;-64
2024/01/17 06:01:05;;;;;;;26.02;10.27;;;;;;;;;;4970218;28;20072;-65
2024/01/17 06:03:31;;;;;;;26.60;9.90;;;;;;;;;;4968376;28;20046;-65
2024/01/17 06:05:57;;;;;;;25.55;10.43;;;;;;;;;;4970082;28;20043;-65
2024/01/17 06:08:23;;;;;;;26.50;9.90;;;;;;;;;;4969751;28;20039;-64
2024/01/17 06:10:49;;;;;;;28.15;10.18;;;;;;;;;;4968650;28;20038;-64
2024/01/17 06:13:15;;;;;;;24.90;10.38;;;;;;;;;;4969814;28;20037;-64
2024/01/17 06:15:41;;;;;;;24.15;9.07;;;;;;;;;;4964242;28;20027;-64
2024/01/17 06:18:07;;;;;;;26.15;10.02;;;;;;;;;;4967955;28;20035;-61
2024/01/17 06:20:33;;;;;;;26.45;9.73;;;;;;;;;;4969696;28;20533;-63
2024/01/17 06:23:00;;;;;;;22.42;9.45;;;;;;;;;;4966380;28;20054;-63
2024/01/17 06:25:26;;;;;;;22.90;9.88;;;;;;;;;;4968008;28;20027;-64
2024/01/17 06:27:52;;;;;;;22.58;9.68;;;;;;;;;;4967340;28;20030;-63
2024/01/17 06:30:18;;;;;;;24.42;9.35;;;;;;;;;;4960377;28;20060;-63
2024/01/17 06:32:45;;;;;;;21.88;8.95;;;;;;;;;;4961768;28;20047;-62
2024/01/17 06:35:12;;;;;;;29.60;10.52;;;;;;;;;;4972763;28;20035;-63
2024/01/17 06:37:39;;;;;;;25.23;10.23;;;;;;;;;;4970495;28;20046;-64
2024/01/17 06:40:07;;;;;;;27.05;9.68;;;;;;;;;;4966115;28;20035;-63
2024/01/17 06:42:34;;;;;;;30.53;11.30;;;;;;;;;;4968122;28;20039;-63
2024/01/17 06:45:00;;;;;;;26.35;11.68;;;;;;;;;;4969110;28;20525;-62
2024/01/17 06:47:26;;;;;;;26.23;10.85;;;;;;;;;;4970010;28;20451;-60
2024/01/17 06:49:53;;;;;;;23.77;8.88;;;;;;;;;;4971213;28;20039;-62
2024/01/17 06:52:19;;;;;;;33.97;14.75;;;;;;;;;;4970662;28;20046;-63
2024/01/17 06:54:46;;;;;;;24.08;9.90;;;;;;;;;;4969966;28;20035;-60
2024/01/17 06:57:12;;;;;;;39.42;14.43;;;;;;;;;;4970552;28;20034;-62
2024/01/17 06:59:38;;;;;;;23.30;8.77;;;;;;;;;;4967248;28;20054;-62
2024/01/17 07:02:04;;;;;;;21.65;8.38;;;;;;;;;;4970726;28;20034;-62
2024/01/17 07:04:30;;;;;;;19.45;8.30;;;;;;;;;;4972319;28;20027;-62
2024/01/17 07:06:56;;;;;;;28.30;11.63;;;;;;;;;;4970656;28;20054;-62
2024/01/17 07:09:22;;;;;;;21.00;8.05;;;;;;;;;;4969835;28;20497;-63
2024/01/17 07:11:48;;;;;;;19.83;7.32;;;;;;;;;;4970116;28;20031;-62
2024/01/17 07:14:14;;;;;;;15.85;6.07;;;;;;;;;;4970273;28;20062;-60
2024/01/17 07:16:41;;;;;;;13.77;6.05;;;;;;;;;;4973519;28;20038;-62
2024/01/17 07:19:07;;;;;;;11.10;4.68;;;;;;;;;;4971392;28;20038;-62
2024/01/17 07:21:36;;;;;;;14.80;6.60;;;;;;;;;;4972403;28;20045;-62
2024/01/17 07:24:02;;;;;;;15.05;6.95;;;;;;;;;;4974320;28;20406;-62
2024/01/17 07:26:29;;;;;;;12.88;5.72;;;;;;;;;;4972451;28;20038;-62
2024/01/17 07:28:55;;;;;;;12.32;5.65;;;;;;;;;;4967975;28;20065;-61
2024/01/17 07:31:21;;;;;;;13.15;5.90;;;;;;;;;;4968135;28;20058;-62
2024/01/17 07:33:47;;;;;;;10.27;5.50;;;;;;;;;;4973199;28;20042;-62
2024/01/17 07:36:14;;;;;;;12.80;5.93;;;;;;;;;;4974919;28;20038;-62
2024/01/17 07:38:40;;;;;;;11.52;5.97;;;;;;;;;;4973673;28;20054;-61
2024/01/17 07:41:06;;;;;;;11.25;5.38;;;;;;;;;;4969385;28;20398;-61
2024/01/17 07:43:33;;;;;;;12.25;5.90;;;;;;;;;;4972508;28;20501;-62
2024/01/17 07:46:00;;;;;;;11.18;5.13;;;;;;;;;;4971058;28;20031;-62
2024/01/17 07:48:26;;;;;;;11.27;6.15;;;;;;;;;;4964947;28;20038;-61
2024/01/17 07:50:53;;;;;;;14.07;5.95;;;;;;;;;;4965338;28;20066;-61
2024/01/17 07:53:19;;;;;;;10.50;5.28;;;;;;;;;;4966974;28;20107;-62
2024/01/17 07:55:45;;;;;;;10.70;5.20;;;;;;;;;;4967429;28;20027;-63
2024/01/17 07:58:11;;;;;;;9.40;4.95;;;;;;;;;;4971727;28;20034;-62
2024/01/17 08:00:38;;;;;;;10.80;5.78;;;;;;;;;;4966847;28;20054;-62
2024/01/17 08:03:04;;;;;;;10.60;6.15;;;;;;;;;;4974478;28;20043;-62
2024/01/17 08:05:33;;;;;;;12.65;6.70;;;;;;;;;;4974032;28;20049;-61
2024/01/17 08:08:00;;;;;;;16.38;9.35;;;;;;;;;;4973348;28;20113;-62
2024/01/17 08:10:26;;;;;;;12.85;7.05;;;;;;;;;;4968857;28;20451;-62
2024/01/17 08:12:52;;;;;;;10.23;4.88;;;;;;;;;;4970924;28;20395;-61
2024/01/17 08:15:18;;;;;;;7.68;4.35;;;;;;;;;;4971109;28;20035;-63
2024/01/17 08:17:45;;;;;;;9.02;4.78;;;;;;;;;;4974429;28;20039;-61
2024/01/17 08:20:12;;;;;;;8.05;4.18;;;;;;;;;;4973404;28;20034;-62
2024/01/17 08:22:40;;;;;;;7.75;4.40;;;;;;;;;;4972712;28;20530;-62
2024/01/17 08:25:07;;;;;;;6.82;3.88;;;;;;;;;;4968034;28;20035;-63
2024/01/17 08:27:33;;;;;;;8.10;4.13;;;;;;;;;;4972257;28;20387;-63
2024/01/17 08:30:00;;;;;;;6.20;3.72;;;;;;;;;;4969374;28;20053;-63
2024/01/17 08:32:26;;;;;;;6.28;3.95;;;;;;;;;;4970400;28;20514;-63
2024/01/17 08:34:52;;;;;;;6.88;3.65;;;;;;;;;;4968909;28;20062;-63
2024/01/17 08:37:18;;;;;;;5.13;3.28;;;;;;;;;;4972204;28;20049;-63
2024/01/17 08:39:44;;;;;;;6.00;3.33;;;;;;;;;;4969891;28;20027;-61
2024/01/17 08:42:11;;;;;;;6.53;3.70;;;;;;;;;;4970743;28;20411;-62
2024/01/17 08:44:40;;;;;;;4.60;3.28;;;;;;;;;;4972220;28;20050;-62
2024/01/17 08:47:07;;;;;;;5.32;3.55;;;;;;;;;;4969729;28;20156;-62
2024/01/17 08:49:37;;;;;;;6.75;4.00;;;;;;;;;;4971266;28;20042;-61
2024/01/17 08:52:04;;;;;;;4.88;2.75;;;;;;;;;;4967825;28;20132;-62
2024/01/17 08:54:30;;;;;;;5.70;3.15;;;;;;;;;;4971264;28;20051;-62
2024/01/17 08:56:56;;;;;;;2.88;2.17;;;;;;;;;;4971989;28;20055;-62
2024/01/17 08:59:22;;;;;;;4.75;3.10;;;;;;;;;;4975257;28;20053;-62
2024/01/17 09:01:52;;;;;;;4.28;2.50;;;;;;;;;;4972046;28;20494;-62
2024/01/17 09:04:19;;;;;;;2.80;2.28;;;;;;;;;;4972958;28;20038;-62
2024/01/17 09:06:45;;;;;;;4.20;2.30;;;;;;;;;;4969648;28;20050;-62
2024/01/17 09:09:12;;;;;;;3.05;2.15;;;;;;;;;;4971781;28;20039;-62
2024/01/17 09:11:39;;;;;;;3.35;1.90;;;;;;;;;;4971872;28;20050;-64
2024/01/17 09:14:06;;;;;;;2.30;1.70;;;;;;;;;;4971586;28;20041;-62
2024/01/17 09:16:33;;;;;;;2.45;1.67;;;;;;;;;;4974123;28;20502;-63
2024/01/17 09:18:59;;;;;;;3.30;1.77;;;;;;;;;;4971225;28;20043;-61
2024/01/17 09:21:26;;;;;;;2.67;1.90;;;;;;;;;;4968052;28;20403;-62
2024/01/17 09:23:52;;;;;;;2.67;1.90;;;;;;;;;;4971743;28;20046;-62
2024/01/17 09:26:18;;;;;;;2.30;1.48;;;;;;;;;;4969557;28;20035;-62
2024/01/17 09:28:44;;;;;;;2.10;1.60;;;;;;;;;;4968574;28;20478;-64
2024/01/17 09:31:11;;;;;;;2.42;1.60;;;;;;;;;;4972061;28;20509;-63
2024/01/17 09:33:38;;;;;;;2.47;1.52;;;;;;;;;;4971199;28;20046;-60
2024/01/17 09:36:05;;;;;;;1.85;1.50;;;;;;;;;;4971368;28;20050;-61
2024/01/17 09:38:31;;;;;;;2.45;1.65;;;;;;;;;;4970753;28;20046;-61
2024/01/17 09:40:58;;;;;;;2.45;1.50;;;;;;;;;;4968651;28;20039;-62
2024/01/17 09:43:24;;;;;;;1.95;1.30;;;;;;;;;;4970555;28;20046;-62
2024/01/17 09:45:54;;;;;;;1.50;1.35;;;;;;;;;;4970779;28;20059;-62
2024/01/17 09:48:25;;;;;;;2.75;1.80;;;;;;;;;;4966773;28;20053;-61
2024/01/17 09:50:51;;;;;;;1.55;1.10;;;;;;;;;;4969673;28;20047;-60
2024/01/17 09:53:25;;;;;;;2.42;1.60;;;;;;;;;;4971131;28;20049;-61
2024/01/17 09:55:53;;;;;;;5.40;1.80;;;;;;;;;;4969185;28;20042;-61
2024/01/17 09:58:19;;;;;;;2.88;1.80;;;;;;;;;;4968959;28;20411;-61
2024/01/17 10:00:48;;;;;;;2.50;1.88;;;;;;;;;;4971043;28;20050;-61
2024/01/17 10:03:20;;;;;;;2.35;1.90;;;;;;;;;;4971238;28;20043;-60
2024/01/17 10:05:50;;;;;;;3.75;2.65;;;;;;;;;;4971916;28;20030;-61
2024/01/17 10:08:18;;;;;;;2.00;1.50;;;;;;;;;;4970926;28;20050;-62
2024/01/17 10:10:44;;;;;;;1.55;1.33;;;;;;;;;;4969991;28;20046;-60
2024/01/17 10:13:13;;;;;;;1.60;1.27;;;;;;;;;;4969281;28;20035;-61
2024/01/17 10:15:44;;;;;;;2.25;1.40;;;;;;;;;;4971641;28;20046;-60
2024/01/17 10:18:11;;;;;;;1.83;1.40;;;;;;;;;;4969477;28;20081;-60
2024/01/17 10:20:38;;;;;;;2.78;1.50;;;;;;;;;;4969324;28;20054;-61
2024/01/17 10:23:07;;;;;;;3.15;1.40;;;;;;;;;;4970103;28;20034;-60
2024/01/17 10:25:40;;;;;;;1.83;1.40;;;;;;;;;;4970320;28;20644;-60
2024/01/17 10:28:07;;;;;;;1.58;1.15;;;;;;;;;;4971524;28;20407;-61
2024/01/17 10:30:36;;;;;;;2.05;1.50;;;;;;;;;;4968298;28;20395;-60
2024/01/17 10:33:03;;;;;;;1.85;1.60;;;;;;;;;;4972214;28;20054;-61
2024/01/17 10:35:30;;;;;;;2.13;1.45;;;;;;;;;;4972671;28;20047;-61
2024/01/17 10:37:56;;;;;;;2.55;1.40;;;;;;;;;;4985592;28;20043;-62
2024/01/17 10:40:23;;;;;;;3.85;2.45;;;;;;;;;;4968087;28;20034;-62
2024/01/17 10:43:09;;;;;;;3.65;1.85;;;;;;;;;;4969260;28;20039;-60
2024/01/17 10:45:37;;;;;;;2.95;1.30;;;;;;;;;;4967746;28;20499;-59
2024/01/17 10:48:05;;;;;;;2.17;1.50;;;;;;;;;;4970134;28;20043;-61
2024/01/17 10:50:31;;;;;;;2.95;1.80;;;;;;;;;;4990284;28;20043;-62
2024/01/17 10:53:05;;;;;;;2.50;1.80;;;;;;;;;;4970359;28;20043;-61
2024/01/17 10:55:36;;;;;;;1.20;1.08;;;;;;;;;;4969532;28;20414;-61
2024/01/17 10:58:07;;;;;;;2.25;1.27;;;;;;;;;;4973704;28;20074;-60
2024/01/17 11:00:37;;;;;;;2.38;1.60;;;;;;;;;;4974491;28;20498;-60
2024/01/17 11:03:08;;;;;;;1.35;1.10;;;;;;;;;;4974675;28;20058;-60
2024/01/17 11:05:44;;;;;;;1.45;1.20;;;;;;;;;;4973869;28;20046;-60
2024/01/17 11:08:12;;;;;;;1.17;0.82;;;;;;;;;;4971803;28;20058;-60
2024/01/17 11:10:40;;;;;;;2.17;1.08;;;;;;;;;;4970911;28;20043;-60
2024/01/17 11:13:09;;;;;;;1.33;1.00;;;;;;;;;;4972914;28;20057;-59
2024/01/17 11:15:38;;;;;;;1.52;0.90;;;;;;;;;;4974554;28;20043;-59
2024/01/17 11:18:05;;;;;;;1.00;0.80;;;;;;;;;;4974553;28;20042;-59
2024/01/17 11:20:32;;;;;;;1.40;1.20;;;;;;;;;;4972773;28;20047;-60
2024/01/17 11:23:01;;;;;;;1.63;1.15;;;;;;;;;;4973533;28;20026;-61
2024/01/17 11:25:41;;;;;;;2.40;1.10;;;;;;;;;;4974883;28;20402;-61
2024/01/17 11:28:19;;;;;;;1.58;0.90;;;;;;;;;;4973547;28;20039;-60
2024/01/17 11:31:17;;;;;;;1.65;1.35;;;;;;;;;;4970862;28;20039;-60
2024/01/17 11:33:44;;;;;;;3.03;1.50;;;;;;;;;;4967924;28;20058;-60
2024/01/17 11:36:44;;;;;;;2.78;1.75;;;;;;;;;;4972212;28;20052;-61
2024/01/17 11:39:19;;;;;;;2.55;1.60;;;;;;;;;;4974073;28;20043;-59
2024/01/17 11:41:48;;;;;;;1.95;1.02;;;;;;;;;;4970466;28;20042;-60
2024/01/17 11:44:17;;;;;;;1.70;1.10;;;;;;;;;;4971962;28;20054;-59
2024/01/17 11:46:51;;;;;;;1.95;1.40;;;;;;;;;;4970401;28;20502;-59
2024/01/17 11:49:38;;;;;;;5.03;1.45;;;;;;;;;;4970867;28;20038;-59
2024/01/17 11:52:08;;;;;;;1.80;1.30;;;;;;;;;;4972669;28;20050;-59
2024/01/17 11:54:35;;;;;;;1.48;1.10;;;;;;;;;;4986291;28;20422;-59
2024/01/17 11:57:03;;;;;;;1.98;1.20;;;;;;;;;;4971302;28;20055;-60
2024/01/17 11:59:32;;;;;;;2.50;1.40;;;;;;;;;;4972590;28;20522;-59
2024/01/17 12:01:58;;;;;;;1.38;1.17;;;;;;;;;;4972733;28;20041;-60
2024/01/17 12:04:25;;;;;;;2.80;1.40;;;;;;;;;;4973891;28;20034;-60
2024/01/17 12:06:52;;;;;;;18.25;4.82;;;;;;;;;;4973179;28;20526;-59
2024/01/17 12:09:19;;;;;;;3.42;1.98;;;;;;;;;;4970159;28;20042;-59
2024/01/17 12:11:48;;;;;;;3.85;1.98;;;;;;;;;;4972890;28;20426;-59
2024/01/17 12:14:15;;;;;;;5.97;2.42;;;;;;;;;;4974299;28;20042;-59
2024/01/17 12:16:42;;;;;;;6.25;2.33;;;;;;;;;;4972515;28;20046;-60
2024/01/17 12:19:12;;;;;;;2.05;1.40;;;;;;;;;;4972084;28;20035;-60
2024/01/17 12:21:39;;;;;;;3.30;1.55;;;;;;;;;;4973637;28;20406;-59
2024/01/17 12:24:11;;;;;;;2.58;1.30;;;;;;;;;;4969778;28;20525;-58
2024/01/17 12:26:38;;;;;;;2.50;1.80;;;;;;;;;;4970654;28;20057;-59
2024/01/17 12:29:13;;;;;;;3.17;1.90;;;;;;;;;;4972292;28;20066;-59
2024/01/17 12:31:40;;;;;;;5.22;1.48;;;;;;;;;;4974662;28;20050;-60
2024/01/17 12:34:06;;;;;;;3.35;1.40;;;;;;;;;;4968760;28;20043;-60
2024/01/17 12:36:35;;;;;;;3.72;1.60;;;;;;;;;;4972887;28;20422;-60
2024/01/17 12:39:05;;;;;;;4.00;1.83;;;;;;;;;;4972312;28;20054;-60
2024/01/17 12:41:33;;;;;;;4.45;1.50;;;;;;;;;;4975076;28;20778;-60
2024/01/17 12:44:00;;;;;;;4.00;1.73;;;;;;;;;;4971820;28;20046;-61
2024/01/17 12:46:27;;;;;;;8.05;2.00;;;;;;;;;;4970577;28;20043;-60
2024/01/17 12:48:58;;;;;;;4.72;1.65;;;;;;;;;;4970934;28;20054;-61
2024/01/17 12:51:26;;;;;;;3.63;2.00;;;;;;;;;;4968549;28;20054;-61
2024/01/17 12:53:53;;;;;;;4.45;2.05;;;;;;;;;;4968876;28;20499;-60
2024/01/17 12:56:19;;;;;;;13.68;5.40;;;;;;;;;;4970927;28;20038;-59
2024/01/17 12:58:45;;;;;;;9.65;3.20;;;;;;;;;;4968502;28;20529;-60
2024/01/17 13:01:12;;;;;;;12.30;3.65;;;;;;;;;;4985036;28;20038;-59
2024/01/17 13:03:40;;;;;;;10.30;3.45;;;;;;;;;;4970363;28;20043;-59
2024/01/17 13:06:06;;;;;;;11.90;3.35;;;;;;;;;;4965252;28;20418;-58
2024/01/17 13:08:33;;;;;;;9.32;2.95;;;;;;;;;;4968237;28;20049;-59
2024/01/17 13:10:59;;;;;;;6.93;2.10;;;;;;;;;;4965729;28;20054;-59
2024/01/17 13:13:29;;;;;;;5.60;2.60;;;;;;;;;;4968852;28;20038;-59
2024/01/17 13:15:55;;;;;;;3.97;2.40;;;;;;;;;;4969850;28;20053;-60
2024/01/17 13:18:22;;;;;;;6.47;2.28;;;;;;;;;;4969579;28;20054;-60
2024/01/17 13:20:49;;;;;;;4.50;2.45;;;;;;;;;;4985157;28;20495;-60
2024/01/17 13:23:15;;;;;;;6.28;2.38;;;;;;;;;;4969259;28;20058;-60
2024/01/17 13:25:42;;;;;;;6.03;2.58;;;;;;;;;;4970346;28;20058;-60
2024/01/17 13:28:10;;;;;;;7.93;2.72;;;;;;;;;;4970157;28;20038;-61
2024/01/17 13:30:37;;;;;;;15.52;4.20;;;;;;;;;;4968064;28;20043;-61
2024/01/17 13:33:11;;;;;;;8.93;3.78;;;;;;;;;;5063258;28;20409;-60
2024/01/17 13:35:46;;;;;;;12.45;3.10;;;;;;;;;;5043312;28;20397;-60
2024/01/17 13:38:12;;;;;;;10.40;4.30;;;;;;;;;;5046330;28;20045;-61
2024/01/17 13:40:38;;;;;;;16.40;5.15;;;;;;;;;;5045609;28;20052;-60
2024/01/17 13:43:05;;;;;;;50.95;14.93;;;;;;;;;;5044973;28;20045;-60
2024/01/17 13:45:31;;;;;;;27.42;11.90;;;;;;;;;;5047753;28;20037;-61
2024/01/17 13:47:58;;;;;;;17.25;8.95;;;;;;;;;;5043869;28;20052;-61
2024/01/17 13:50:25;;;;;;;11.23;5.65;;;;;;;;;;5046976;28;20036;-61
2024/01/17 13:52:53;;;;;;;10.57;4.20;;;;;;;;;;5047459;28;20424;-60
2024/01/17 13:55:22;;;;;;;13.32;6.97;;;;;;;;;;5049339;28;20049;-61
2024/01/17 13:57:54;;;;;;;9.10;4.50;;;;;;;;;;5043488;28;20050;-61
2024/01/17 14:00:24;;;;;;;7.95;3.38;;;;;;;;;;5025578;28;20040;-62
2024/01/17 14:02:57;;;;;;;7.38;3.08;;;;;;;;;;5050415;28;20492;-61
2024/01/17 14:05:24;;;;;;;15.90;8.13;;;;;;;;;;5045191;28;20448;-62
2024/01/17 14:07:50;;;;;;;22.02;5.60;;;;;;;;;;5047378;28;20618;-62
2024/01/17 14:10:18;;;;;;;20.33;5.35;;;;;;;;;;5045070;28;20040;-61
2024/01/17 14:12:44;;;;;;;14.00;3.38;;;;;;;;;;5054956;28;20032;-61
2024/01/17 14:15:11;;;;;;;10.48;4.10;;;;;;;;;;5036751;28;20405;-61
2024/01/17 14:17:37;;;;;;;14.10;6.18;;;;;;;;;;5038599;28;20041;-62
2024/01/17 14:20:07;;;;;;;15.27;4.80;;;;;;;;;;5031605;28;20045;-62
2024/01/17 14:22:34;;;;;;;18.13;4.45;;;;;;;;;;5044957;28;20052;-62
2024/01/17 14:25:00;;;;;;;10.55;4.57;;;;;;;;;;5040550;28;20048;-62
2024/01/17 14:27:26;;;;;;;9.80;4.45;;;;;;;;;;5046845;28;20408;-62
2024/01/17 14:29:52;;;;;;;6.25;3.50;;;;;;;;;;5046721;28;20044;-61
2024/01/17 14:32:19;;;;;;;12.55;3.58;;;;;;;;;;5047083;28;20032;-61